Wichita Mid Continent Airport
KICT : now visible

Airfield :











YOU CAN JOIN US ON...

 
LOGIN :

Register | Disclaimer

   EN    FR    IT 

 









Legend :    VFR   Marginal VFR   IFR   Intensive IFR   Very Intensive IFR
Visi :
Ceiling :
>= 8 km
>= 3000ft
5 to 8 km
1000 to 3000 ft
1500m to 5 km
500 to 1000 ft
800 to 1500m
200 to 500 ft
< 800m
< 200 ft
Symbols :   Thunderstorms  Fog  Heavy snow  Heavy precipitations  Wind > 20 kt






- Airport Elevation : 1333 ft
- IATA code : ICT


KICT - Wichita Mid Continent

CURRENT METAR :
  • 281553Z 35013KT 10SM FEW030 BKN037 BKN050 OVC130 22/17 A2999 RMK AO2 SLP143 T02170167

EXPIRED METARs :
  • 281453Z 32009KT 10SM FEW028 OVC033 20/17 A2998 RMK AO2 SLP142 60000 T02000167 51014
  • 281353Z 33008KT 10SM BKN037 BKN110 20/17 A2997 RMK AO2 RAB00E18 SLP139 P0000 T02000172

TAF KICT
Valid from the 28 at 12:00 until the 29 at 12:00 UTC


281120Z 2812/2912 33008KT P6SM -SHRA SCT020 BKN028
FM281700 35012KT P6SM BKN060
FM282000 01014KT P6SM BKN140
KZKC FIR / North America



MET'MAP, your aeronautical weather chart ! - Copyright ORBIFLY December 2007 - Disclaimer

ORBIFLY MET'MAP TEAM :

Programming & Development : Alexandra Zaïnal
Concept & original design : Baudouin d'Aumeries
Assistance for programming : Marc-Olivier Méhu
Technical & hardware support : Manuel Goepfert

Contact : metmap@orbifly.com




SOURCES & CREDITS :

   NOAA       Earth
Advisory